Accueil
METAR-TAF:

METAR-TAF

Aéroports :

Schwäbisch Hall, Allemagne

latitude: 49-07-06N, longitude: 9-47-02E, altitude: 398 m

Observation

Le bulletin a été fait il y a 13 minutes, à 19:20 UTC
Vent 3 kt de est/nord-est, variant entre nord/nord-est et est
Température 5°C
Humidité 70%
Pression 1019 hPa
Visibilité 10 km ou plus

METAR: EDTY 071920Z AUTO 07003KT 030V100 9999 // NCD 05/M00 Q1019

Heure: 21:33 (19:33 UTC)

Prévision

Le bulletin a été fait il y a 2 heures et 33 minutes, à 17:00 UTC
Prévision valable du 07 à 18 UTC au 08 à 03 UTC
Vent 7 kt de ouest/nord-ouest
Visibilité 10 km ou plus
pas de nuages en-dessous de 1500 mètres et pas de cumulonimbus.
Evoluant progressivement
du 07 à 19 UTC au 07 à 21 UTC
Vent 3 kt de direction variable

TAF: EDTY 071700Z 0718/0803 29007KT CAVOK BECMG 0719/0721 VRB03KT

Observations et prévisions météorologiques de plus de 4000 aéroports (messages METAR et TAF).

Les stations disponibles sont représentées par des disques jaunes et rouges sur la carte.

Passer la souris dessus pour voir le nom de la station.

Cliquer dessus pour voir les observations et prévisions météorologiques.

Pour changer de carte: cliquez sur les boutons verts avec une croix noire pour zoomer, sur le bouton vert avec un tiret pour effectuer un zoom arrière, ou sur les flèches vertes pour les cartes adjacentes.


METAR-TAF: